sensor_id;sensor_type;location;lat;lon;timestamp;P1;durP1;ratioP1;P2;durP2;ratioP2
44838;SDS011;30576;42.098;24.876;2022-07-29T00:00:10;2.15;;;1.20;;
44838;SDS011;30576;42.098;24.876;2022-07-29T00:02:36;2.65;;;1.48;;
44838;SDS011;30576;42.098;24.876;2022-07-29T00:05:02;1.35;;;1.02;;
44838;SDS011;30576;42.098;24.876;2022-07-29T00:07:28;3.08;;;1.58;;
44838;SDS011;30576;42.098;24.876;2022-07-29T00:09:54;2.60;;;1.63;;
44838;SDS011;30576;42.098;24.876;2022-07-29T00:12:20;1.75;;;1.13;;
44838;SDS011;30576;42.098;24.876;2022-07-29T00:14:47;1.83;;;1.20;;
44838;SDS011;30576;42.098;24.876;2022-07-29T00:17:13;1.92;;;1.23;;
44838;SDS011;30576;42.098;24.876;2022-07-29T00:19:38;2.45;;;1.48;;
44838;SDS011;30576;42.098;24.876;2022-07-29T00:22:04;1.13;;;0.80;;
44838;SDS011;30576;42.098;24.876;2022-07-29T00:24:29;2.20;;;1.58;;
44838;SDS011;30576;42.098;24.876;2022-07-29T00:26:55;2.97;;;1.88;;
44838;SDS011;30576;42.098;24.876;2022-07-29T00:29:20;2.17;;;1.45;;
44838;SDS011;30576;42.098;24.876;2022-07-29T00:31:46;2.10;;;1.63;;
44838;SDS011;30576;42.098;24.876;2022-07-29T00:34:11;2.47;;;1.38;;
44838;SDS011;30576;42.098;24.876;2022-07-29T00:36:57;1.90;;;1.23;;
44838;SDS011;30576;42.098;24.876;2022-07-29T00:39:22;2.80;;;1.73;;
44838;SDS011;30576;42.098;24.876;2022-07-29T00:41:48;2.35;;;1.50;;
44838;SDS011;30576;42.098;24.876;2022-07-29T00:44:14;2.15;;;1.58;;
44838;SDS011;30576;42.098;24.876;2022-07-29T00:46:40;2.00;;;1.48;;
44838;SDS011;30576;42.098;24.876;2022-07-29T00:49:05;2.25;;;1.73;;
44838;SDS011;30576;42.098;24.876;2022-07-29T00:51:32;3.85;;;2.13;;
44838;SDS011;30576;42.098;24.876;2022-07-29T00:54:01;2.10;;;1.50;;
44838;SDS011;30576;42.098;24.876;2022-07-29T00:56:29;2.85;;;2.10;;
44838;SDS011;30576;42.098;24.876;2022-07-29T00:58:56;3.90;;;2.42;;
44838;SDS011;30576;42.098;24.876;2022-07-29T01:01:22;3.08;;;1.98;;
44838;SDS011;30576;42.098;24.876;2022-07-29T01:03:48;4.47;;;1.90;;
44838;SDS011;30576;42.098;24.876;2022-07-29T01:06:14;2.35;;;1.73;;
44838;SDS011;30576;42.098;24.876;2022-07-29T01:08:41;3.50;;;1.90;;
44838;SDS011;30576;42.098;24.876;2022-07-29T01:11:07;2.10;;;1.60;;
44838;SDS011;30576;42.098;24.876;2022-07-29T01:13:34;2.47;;;1.73;;
44838;SDS011;30576;42.098;24.876;2022-07-29T01:16:03;4.65;;;2.92;;
44838;SDS011;30576;42.098;24.876;2022-07-29T01:18:39;3.40;;;2.00;;
44838;SDS011;30576;42.098;24.876;2022-07-29T01:29:53;4.22;;;2.10;;
44838;SDS011;30576;42.098;24.876;2022-07-29T01:32:24;3.53;;;2.30;;
44838;SDS011;30576;42.098;24.876;2022-07-29T01:34:54;3.15;;;2.28;;
44838;SDS011;30576;42.098;24.876;2022-07-29T01:37:28;2.78;;;1.40;;
44838;SDS011;30576;42.098;24.876;2022-07-29T01:40:02;3.15;;;2.08;;
44838;SDS011;30576;42.098;24.876;2022-07-29T01:42:36;2.72;;;1.88;;
44838;SDS011;30576;42.098;24.876;2022-07-29T01:45:08;3.65;;;2.22;;
44838;SDS011;30576;42.098;24.876;2022-07-29T01:47:45;3.50;;;1.90;;
44838;SDS011;30576;42.098;24.876;2022-07-29T01:50:18;9.65;;;3.15;;
44838;SDS011;30576;42.098;24.876;2022-07-29T01:52:59;4.10;;;2.65;;
44838;SDS011;30576;42.098;24.876;2022-07-29T01:55:28;3.60;;;2.20;;
44838;SDS011;30576;42.098;24.876;2022-07-29T01:57:59;3.55;;;2.33;;
44838;SDS011;30576;42.098;24.876;2022-07-29T02:00:26;4.15;;;2.15;;
44838;SDS011;30576;42.098;24.876;2022-07-29T02:02:54;11.60;;;4.15;;
44838;SDS011;30576;42.098;24.876;2022-07-29T02:05:23;7.40;;;3.20;;
44838;SDS011;30576;42.098;24.876;2022-07-29T02:07:52;4.85;;;3.25;;
44838;SDS011;30576;42.098;24.876;2022-07-29T02:10:20;5.28;;;3.47;;
44838;SDS011;30576;42.098;24.876;2022-07-29T02:12:48;4.15;;;2.42;;
44838;SDS011;30576;42.098;24.876;2022-07-29T02:15:15;6.18;;;2.28;;
44838;SDS011;30576;42.098;24.876;2022-07-29T02:17:44;4.28;;;2.88;;
44838;SDS011;30576;42.098;24.876;2022-07-29T02:20:13;5.03;;;3.10;;
44838;SDS011;30576;42.098;24.876;2022-07-29T02:22:41;4.40;;;2.75;;
44838;SDS011;30576;42.098;24.876;2022-07-29T02:25:10;5.35;;;3.00;;
44838;SDS011;30576;42.098;24.876;2022-07-29T02:27:36;4.78;;;3.10;;
44838;SDS011;30576;42.098;24.876;2022-07-29T02:30:05;4.75;;;3.42;;
44838;SDS011;30576;42.098;24.876;2022-07-29T02:32:32;2.83;;;2.03;;
44838;SDS011;30576;42.098;24.876;2022-07-29T02:35:00;4.22;;;2.80;;
44838;SDS011;30576;42.098;24.876;2022-07-29T02:37:27;4.85;;;2.75;;
44838;SDS011;30576;42.098;24.876;2022-07-29T02:39:54;5.05;;;2.55;;
44838;SDS011;30576;42.098;24.876;2022-07-29T02:42:21;8.35;;;4.57;;
44838;SDS011;30576;42.098;24.876;2022-07-29T02:44:49;5.40;;;3.45;;
44838;SDS011;30576;42.098;24.876;2022-07-29T02:47:30;6.43;;;4.13;;
44838;SDS011;30576;42.098;24.876;2022-07-29T02:50:02;5.90;;;3.28;;
44838;SDS011;30576;42.098;24.876;2022-07-29T02:57:49;5.80;;;3.50;;
44838;SDS011;30576;42.098;24.876;2022-07-29T03:00:32;8.30;;;3.53;;
44838;SDS011;30576;42.098;24.876;2022-07-29T03:03:02;4.43;;;2.92;;
44838;SDS011;30576;42.098;24.876;2022-07-29T03:05:32;4.05;;;2.28;;
44838;SDS011;30576;42.098;24.876;2022-07-29T03:08:01;13.82;;;3.42;;
44838;SDS011;30576;42.098;24.876;2022-07-29T03:10:28;4.38;;;2.42;;
44838;SDS011;30576;42.098;24.876;2022-07-29T03:12:55;4.75;;;2.97;;
44838;SDS011;30576;42.098;24.876;2022-07-29T03:15:22;4.65;;;3.22;;
44838;SDS011;30576;42.098;24.876;2022-07-29T03:17:49;7.47;;;5.22;;
44838;SDS011;30576;42.098;24.876;2022-07-29T03:20:15;6.55;;;3.38;;
44838;SDS011;30576;42.098;24.876;2022-07-29T03:22:41;5.85;;;3.55;;
44838;SDS011;30576;42.098;24.876;2022-07-29T03:25:11;5.95;;;4.05;;
44838;SDS011;30576;42.098;24.876;2022-07-29T03:27:38;5.95;;;3.28;;
44838;SDS011;30576;42.098;24.876;2022-07-29T03:30:04;4.57;;;2.90;;
44838;SDS011;30576;42.098;24.876;2022-07-29T03:32:30;7.28;;;3.45;;
44838;SDS011;30576;42.098;24.876;2022-07-29T03:34:55;5.65;;;3.53;;
44838;SDS011;30576;42.098;24.876;2022-07-29T03:37:21;5.40;;;3.83;;
44838;SDS011;30576;42.098;24.876;2022-07-29T03:39:46;5.82;;;3.30;;
44838;SDS011;30576;42.098;24.876;2022-07-29T03:42:14;5.55;;;3.53;;
44838;SDS011;30576;42.098;24.876;2022-07-29T03:44:44;5.45;;;3.15;;
44838;SDS011;30576;42.098;24.876;2022-07-29T03:47:12;5.13;;;3.90;;
44838;SDS011;30576;42.098;24.876;2022-07-29T03:49:39;5.43;;;3.35;;
44838;SDS011;30576;42.098;24.876;2022-07-29T03:52:07;10.10;;;3.50;;
44838;SDS011;30576;42.098;24.876;2022-07-29T03:54:33;5.90;;;3.47;;
44838;SDS011;30576;42.098;24.876;2022-07-29T03:56:59;14.88;;;4.35;;
44838;SDS011;30576;42.098;24.876;2022-07-29T03:59:27;8.65;;;3.70;;
44838;SDS011;30576;42.098;24.876;2022-07-29T04:01:53;6.25;;;3.92;;
44838;SDS011;30576;42.098;24.876;2022-07-29T04:04:21;5.55;;;3.28;;
44838;SDS011;30576;42.098;24.876;2022-07-29T04:06:47;5.05;;;3.35;;
44838;SDS011;30576;42.098;24.876;2022-07-29T04:09:12;20.90;;;3.90;;
44838;SDS011;30576;42.098;24.876;2022-07-29T04:11:39;5.65;;;3.50;;
44838;SDS011;30576;42.098;24.876;2022-07-29T04:14:05;8.02;;;4.53;;
44838;SDS011;30576;42.098;24.876;2022-07-29T04:16:31;10.60;;;4.90;;
44838;SDS011;30576;42.098;24.876;2022-07-29T04:18:56;5.20;;;2.95;;
44838;SDS011;30576;42.098;24.876;2022-07-29T04:21:22;17.88;;;6.40;;
44838;SDS011;30576;42.098;24.876;2022-07-29T04:23:48;14.07;;;5.28;;
44838;SDS011;30576;42.098;24.876;2022-07-29T04:26:17;9.88;;;4.43;;
44838;SDS011;30576;42.098;24.876;2022-07-29T04:28:42;19.35;;;4.80;;
44838;SDS011;30576;42.098;24.876;2022-07-29T04:31:09;7.22;;;3.38;;
44838;SDS011;30576;42.098;24.876;2022-07-29T04:33:35;8.60;;;3.88;;
44838;SDS011;30576;42.098;24.876;2022-07-29T04:36:00;4.57;;;3.50;;
44838;SDS011;30576;42.098;24.876;2022-07-29T04:38:26;6.43;;;4.13;;
44838;SDS011;30576;42.098;24.876;2022-07-29T04:40:51;8.20;;;3.70;;
44838;SDS011;30576;42.098;24.876;2022-07-29T04:43:17;5.82;;;3.67;;
44838;SDS011;30576;42.098;24.876;2022-07-29T04:45:42;8.90;;;5.18;;
44838;SDS011;30576;42.098;24.876;2022-07-29T04:48:08;10.85;;;4.97;;
44838;SDS011;30576;42.098;24.876;2022-07-29T04:50:34;4.65;;;3.17;;
44838;SDS011;30576;42.098;24.876;2022-07-29T04:52:59;7.40;;;4.25;;
44838;SDS011;30576;42.098;24.876;2022-07-29T04:55:25;7.60;;;4.93;;
44838;SDS011;30576;42.098;24.876;2022-07-29T04:57:51;6.00;;;3.55;;
44838;SDS011;30576;42.098;24.876;2022-07-29T05:00:16;6.38;;;3.78;;
44838;SDS011;30576;42.098;24.876;2022-07-29T05:02:42;7.00;;;4.57;;
44838;SDS011;30576;42.098;24.876;2022-07-29T05:05:07;4.97;;;3.25;;
44838;SDS011;30576;42.098;24.876;2022-07-29T05:07:33;6.88;;;4.13;;
44838;SDS011;30576;42.098;24.876;2022-07-29T05:09:59;6.72;;;3.40;;
44838;SDS011;30576;42.098;24.876;2022-07-29T05:12:25;6.38;;;3.55;;
44838;SDS011;30576;42.098;24.876;2022-07-29T05:14:50;5.88;;;4.00;;
44838;SDS011;30576;42.098;24.876;2022-07-29T05:17:18;7.43;;;3.55;;
44838;SDS011;30576;42.098;24.876;2022-07-29T05:19:44;5.50;;;3.65;;
44838;SDS011;30576;42.098;24.876;2022-07-29T05:22:09;6.60;;;3.53;;
44838;SDS011;30576;42.098;24.876;2022-07-29T05:24:35;5.95;;;3.58;;
44838;SDS011;30576;42.098;24.876;2022-07-29T05:27:00;5.55;;;3.97;;
44838;SDS011;30576;42.098;24.876;2022-07-29T05:29:26;6.03;;;4.20;;
44838;SDS011;30576;42.098;24.876;2022-07-29T05:31:51;5.13;;;3.03;;
44838;SDS011;30576;42.098;24.876;2022-07-29T05:34:18;5.07;;;3.85;;
44838;SDS011;30576;42.098;24.876;2022-07-29T05:36:44;5.70;;;3.63;;
44838;SDS011;30576;42.098;24.876;2022-07-29T05:39:10;6.65;;;4.00;;
44838;SDS011;30576;42.098;24.876;2022-07-29T05:41:35;8.88;;;4.10;;
44838;SDS011;30576;42.098;24.876;2022-07-29T05:44:01;7.78;;;4.32;;
44838;SDS011;30576;42.098;24.876;2022-07-29T05:46:27;6.38;;;4.22;;
44838;SDS011;30576;42.098;24.876;2022-07-29T05:48:53;6.93;;;4.93;;
44838;SDS011;30576;42.098;24.876;2022-07-29T05:51:18;5.80;;;4.18;;
44838;SDS011;30576;42.098;24.876;2022-07-29T05:53:44;6.45;;;4.13;;
44838;SDS011;30576;42.098;24.876;2022-07-29T05:56:09;6.97;;;4.68;;
44838;SDS011;30576;42.098;24.876;2022-07-29T05:58:36;7.88;;;4.50;;
44838;SDS011;30576;42.098;24.876;2022-07-29T06:01:01;5.95;;;3.70;;
44838;SDS011;30576;42.098;24.876;2022-07-29T06:03:27;7.25;;;4.47;;
44838;SDS011;30576;42.098;24.876;2022-07-29T06:05:53;6.13;;;4.43;;
44838;SDS011;30576;42.098;24.876;2022-07-29T06:08:18;10.07;;;5.68;;
44838;SDS011;30576;42.098;24.876;2022-07-29T06:10:44;5.75;;;3.78;;
44838;SDS011;30576;42.098;24.876;2022-07-29T06:13:10;6.35;;;4.47;;
44838;SDS011;30576;42.098;24.876;2022-07-29T06:15:37;5.90;;;4.10;;
44838;SDS011;30576;42.098;24.876;2022-07-29T06:18:03;6.00;;;3.85;;
44838;SDS011;30576;42.098;24.876;2022-07-29T06:20:29;7.55;;;4.85;;
44838;SDS011;30576;42.098;24.876;2022-07-29T06:22:55;6.82;;;3.95;;
44838;SDS011;30576;42.098;24.876;2022-07-29T06:25:22;6.07;;;4.13;;
44838;SDS011;30576;42.098;24.876;2022-07-29T06:27:47;8.55;;;4.78;;
44838;SDS011;30576;42.098;24.876;2022-07-29T06:30:13;6.05;;;4.45;;
44838;SDS011;30576;42.098;24.876;2022-07-29T06:32:38;6.55;;;3.72;;
44838;SDS011;30576;42.098;24.876;2022-07-29T06:35:04;5.18;;;3.35;;
44838;SDS011;30576;42.098;24.876;2022-07-29T06:37:30;5.43;;;3.65;;
44838;SDS011;30576;42.098;24.876;2022-07-29T06:39:56;5.93;;;4.10;;
44838;SDS011;30576;42.098;24.876;2022-07-29T06:42:43;5.73;;;3.67;;
44838;SDS011;30576;42.098;24.876;2022-07-29T06:45:09;4.78;;;3.95;;
44838;SDS011;30576;42.098;24.876;2022-07-29T06:47:36;6.03;;;4.15;;
44838;SDS011;30576;42.098;24.876;2022-07-29T06:50:01;5.85;;;3.15;;
44838;SDS011;30576;42.098;24.876;2022-07-29T06:52:27;7.57;;;4.15;;
44838;SDS011;30576;42.098;24.876;2022-07-29T06:54:53;5.07;;;3.80;;
44838;SDS011;30576;42.098;24.876;2022-07-29T06:57:20;4.22;;;2.97;;
44838;SDS011;30576;42.098;24.876;2022-07-29T06:59:46;6.57;;;3.75;;
44838;SDS011;30576;42.098;24.876;2022-07-29T07:02:11;6.43;;;4.38;;
44838;SDS011;30576;42.098;24.876;2022-07-29T07:04:37;4.88;;;3.80;;
44838;SDS011;30576;42.098;24.876;2022-07-29T07:07:02;7.00;;;4.47;;
44838;SDS011;30576;42.098;24.876;2022-07-29T07:09:28;4.90;;;3.65;;
44838;SDS011;30576;42.098;24.876;2022-07-29T07:11:53;4.75;;;3.55;;
44838;SDS011;30576;42.098;24.876;2022-07-29T07:14:19;7.72;;;4.40;;
44838;SDS011;30576;42.098;24.876;2022-07-29T07:16:44;4.32;;;3.45;;
44838;SDS011;30576;42.098;24.876;2022-07-29T07:19:09;5.22;;;3.67;;
44838;SDS011;30576;42.098;24.876;2022-07-29T07:21:35;5.30;;;3.58;;
44838;SDS011;30576;42.098;24.876;2022-07-29T07:24:00;8.52;;;4.45;;
44838;SDS011;30576;42.098;24.876;2022-07-29T07:26:26;3.50;;;2.42;;
44838;SDS011;30576;42.098;24.876;2022-07-29T07:28:52;4.72;;;2.80;;
44838;SDS011;30576;42.098;24.876;2022-07-29T07:31:17;3.92;;;2.75;;
44838;SDS011;30576;42.098;24.876;2022-07-29T07:33:43;4.32;;;3.08;;
44838;SDS011;30576;42.098;24.876;2022-07-29T07:36:09;3.00;;;1.85;;
44838;SDS011;30576;42.098;24.876;2022-07-29T07:38:34;3.45;;;2.55;;
44838;SDS011;30576;42.098;24.876;2022-07-29T07:41:00;3.88;;;2.67;;
44838;SDS011;30576;42.098;24.876;2022-07-29T07:43:26;6.57;;;3.15;;
44838;SDS011;30576;42.098;24.876;2022-07-29T07:45:51;4.63;;;2.47;;
44838;SDS011;30576;42.098;24.876;2022-07-29T07:48:17;5.45;;;2.40;;
44838;SDS011;30576;42.098;24.876;2022-07-29T07:50:43;3.78;;;2.42;;
44838;SDS011;30576;42.098;24.876;2022-07-29T07:53:09;3.95;;;2.08;;
44838;SDS011;30576;42.098;24.876;2022-07-29T07:55:39;3.83;;;2.10;;
44838;SDS011;30576;42.098;24.876;2022-07-29T07:58:06;3.00;;;1.98;;
44838;SDS011;30576;42.098;24.876;2022-07-29T08:00:31;2.95;;;1.80;;
44838;SDS011;30576;42.098;24.876;2022-07-29T08:02:57;3.60;;;2.22;;
44838;SDS011;30576;42.098;24.876;2022-07-29T08:05:23;4.15;;;2.38;;
44838;SDS011;30576;42.098;24.876;2022-07-29T08:07:49;2.67;;;1.60;;
44838;SDS011;30576;42.098;24.876;2022-07-29T08:10:16;2.45;;;1.20;;
44838;SDS011;30576;42.098;24.876;2022-07-29T08:13:03;1.73;;;1.27;;
44838;SDS011;30576;42.098;24.876;2022-07-29T08:15:29;2.45;;;1.60;;
44838;SDS011;30576;42.098;24.876;2022-07-29T08:17:55;2.45;;;1.55;;
44838;SDS011;30576;42.098;24.876;2022-07-29T08:20:20;2.85;;;1.80;;
44838;SDS011;30576;42.098;24.876;2022-07-29T08:22:46;2.47;;;1.35;;
44838;SDS011;30576;42.098;24.876;2022-07-29T08:25:11;3.38;;;1.90;;
44838;SDS011;30576;42.098;24.876;2022-07-29T08:27:37;4.82;;;1.52;;
44838;SDS011;30576;42.098;24.876;2022-07-29T08:30:02;1.70;;;1.17;;
44838;SDS011;30576;42.098;24.876;2022-07-29T08:32:29;1.98;;;1.38;;
44838;SDS011;30576;42.098;24.876;2022-07-29T08:34:54;2.20;;;1.55;;
44838;SDS011;30576;42.098;24.876;2022-07-29T08:37:20;1.85;;;1.60;;
44838;SDS011;30576;42.098;24.876;2022-07-29T08:39:45;2.33;;;1.58;;
44838;SDS011;30576;42.098;24.876;2022-07-29T08:42:11;5.72;;;3.08;;
44838;SDS011;30576;42.098;24.876;2022-07-29T08:44:36;2.25;;;1.40;;
44838;SDS011;30576;42.098;24.876;2022-07-29T08:47:02;1.75;;;1.05;;
44838;SDS011;30576;42.098;24.876;2022-07-29T08:49:28;1.92;;;1.40;;
44838;SDS011;30576;42.098;24.876;2022-07-29T08:51:54;4.57;;;1.83;;
44838;SDS011;30576;42.098;24.876;2022-07-29T08:54:22;1.92;;;1.42;;
44838;SDS011;30576;42.098;24.876;2022-07-29T08:56:49;3.90;;;1.70;;
44838;SDS011;30576;42.098;24.876;2022-07-29T08:59:16;2.10;;;1.40;;
44838;SDS011;30576;42.098;24.876;2022-07-29T09:01:45;3.13;;;1.58;;
44838;SDS011;30576;42.098;24.876;2022-07-29T09:04:13;2.70;;;1.60;;
44838;SDS011;30576;42.098;24.876;2022-07-29T09:06:44;1.67;;;1.20;;
44838;SDS011;30576;42.098;24.876;2022-07-29T09:09:12;1.58;;;1.40;;
44838;SDS011;30576;42.098;24.876;2022-07-29T09:11:38;8.73;;;2.20;;
44838;SDS011;30576;42.098;24.876;2022-07-29T09:14:04;2.42;;;1.70;;
44838;SDS011;30576;42.098;24.876;2022-07-29T09:19:32;4.07;;;2.80;;
44838;SDS011;30576;42.098;24.876;2022-07-29T09:22:06;2.50;;;1.40;;
44838;SDS011;30576;42.098;24.876;2022-07-29T09:26:59;1.65;;;1.05;;
44838;SDS011;30576;42.098;24.876;2022-07-29T09:29:26;5.70;;;2.53;;
44838;SDS011;30576;42.098;24.876;2022-07-29T09:31:52;1.98;;;1.48;;
44838;SDS011;30576;42.098;24.876;2022-07-29T09:34:23;3.47;;;1.75;;
44838;SDS011;30576;42.098;24.876;2022-07-29T09:36:51;3.17;;;1.58;;
44838;SDS011;30576;42.098;24.876;2022-07-29T09:39:28;4.80;;;1.88;;
44838;SDS011;30576;42.098;24.876;2022-07-29T09:42:10;3.25;;;1.33;;
44838;SDS011;30576;42.098;24.876;2022-07-29T09:44:43;3.22;;;1.45;;
44838;SDS011;30576;42.098;24.876;2022-07-29T09:47:10;3.53;;;1.83;;
44838;SDS011;30576;42.098;24.876;2022-07-29T09:49:53;7.28;;;2.78;;
44838;SDS011;30576;42.098;24.876;2022-07-29T09:52:22;2.05;;;1.30;;
44838;SDS011;30576;42.098;24.876;2022-07-29T09:54:49;3.15;;;1.55;;
44838;SDS011;30576;42.098;24.876;2022-07-29T09:57:28;2.17;;;1.50;;
44838;SDS011;30576;42.098;24.876;2022-07-29T10:02:27;2.85;;;1.63;;
44838;SDS011;30576;42.098;24.876;2022-07-29T10:04:54;7.32;;;3.47;;
44838;SDS011;30576;42.098;24.876;2022-07-29T10:07:20;1.77;;;1.15;;
44838;SDS011;30576;42.098;24.876;2022-07-29T10:09:53;1.55;;;1.30;;
44838;SDS011;30576;42.098;24.876;2022-07-29T10:12:22;1.80;;;1.00;;
44838;SDS011;30576;42.098;24.876;2022-07-29T10:14:48;2.22;;;1.55;;
44838;SDS011;30576;42.098;24.876;2022-07-29T10:17:14;2.00;;;1.23;;
44838;SDS011;30576;42.098;24.876;2022-07-29T10:19:41;1.85;;;1.27;;
44838;SDS011;30576;42.098;24.876;2022-07-29T10:22:08;6.47;;;2.28;;
44838;SDS011;30576;42.098;24.876;2022-07-29T10:24:35;2.10;;;1.58;;
44838;SDS011;30576;42.098;24.876;2022-07-29T10:27:04;2.67;;;1.40;;
44838;SDS011;30576;42.098;24.876;2022-07-29T10:29:31;2.58;;;1.38;;
44838;SDS011;30576;42.098;24.876;2022-07-29T10:37:28;3.08;;;1.33;;
44838;SDS011;30576;42.098;24.876;2022-07-29T10:40:18;1.65;;;1.27;;
44838;SDS011;30576;42.098;24.876;2022-07-29T10:43:19;1.80;;;1.10;;
44838;SDS011;30576;42.098;24.876;2022-07-29T10:45:47;2.47;;;1.40;;
44838;SDS011;30576;42.098;24.876;2022-07-29T10:48:14;1.85;;;1.35;;
44838;SDS011;30576;42.098;24.876;2022-07-29T10:50:56;2.45;;;1.70;;
44838;SDS011;30576;42.098;24.876;2022-07-29T10:53:49;1.15;;;0.95;;
44838;SDS011;30576;42.098;24.876;2022-07-29T10:56:22;1.67;;;1.40;;
44838;SDS011;30576;42.098;24.876;2022-07-29T11:01:46;2.10;;;1.42;;
44838;SDS011;30576;42.098;24.876;2022-07-29T11:04:16;2.45;;;1.40;;
44838;SDS011;30576;42.098;24.876;2022-07-29T11:09:30;3.13;;;1.83;;
44838;SDS011;30576;42.098;24.876;2022-07-29T11:11:56;3.00;;;1.98;;
44838;SDS011;30576;42.098;24.876;2022-07-29T11:14:56;6.88;;;1.92;;
44838;SDS011;30576;42.098;24.876;2022-07-29T11:17:16;4.38;;;1.67;;
44838;SDS011;30576;42.098;24.876;2022-07-29T11:19:42;1.88;;;1.40;;
44838;SDS011;30576;42.098;24.876;2022-07-29T11:22:09;2.30;;;1.25;;
44838;SDS011;30576;42.098;24.876;2022-07-29T11:24:35;1.73;;;1.20;;
44838;SDS011;30576;42.098;24.876;2022-07-29T11:27:14;3.00;;;1.88;;
44838;SDS011;30576;42.098;24.876;2022-07-29T11:32:34;2.10;;;1.15;;
44838;SDS011;30576;42.098;24.876;2022-07-29T11:35:12;2.15;;;1.50;;
44838;SDS011;30576;42.098;24.876;2022-07-29T11:37:43;2.03;;;1.20;;
44838;SDS011;30576;42.098;24.876;2022-07-29T11:40:10;2.15;;;1.80;;
44838;SDS011;30576;42.098;24.876;2022-07-29T11:42:41;1.88;;;1.50;;
44838;SDS011;30576;42.098;24.876;2022-07-29T11:45:44;5.53;;;1.70;;
44838;SDS011;30576;42.098;24.876;2022-07-29T11:48:14;1.60;;;1.30;;
44838;SDS011;30576;42.098;24.876;2022-07-29T11:50:41;1.70;;;1.05;;
44838;SDS011;30576;42.098;24.876;2022-07-29T11:53:10;2.13;;;1.60;;
44838;SDS011;30576;42.098;24.876;2022-07-29T11:55:38;1.70;;;1.23;;
44838;SDS011;30576;42.098;24.876;2022-07-29T11:58:04;3.30;;;1.75;;
44838;SDS011;30576;42.098;24.876;2022-07-29T12:00:31;3.65;;;1.00;;
44838;SDS011;30576;42.098;24.876;2022-07-29T12:03:04;2.42;;;1.20;;
44838;SDS011;30576;42.098;24.876;2022-07-29T12:05:38;2.03;;;1.20;;
44838;SDS011;30576;42.098;24.876;2022-07-29T12:08:08;1.65;;;1.30;;
44838;SDS011;30576;42.098;24.876;2022-07-29T12:10:39;2.53;;;1.50;;
44838;SDS011;30576;42.098;24.876;2022-07-29T12:13:06;3.63;;;1.25;;
44838;SDS011;30576;42.098;24.876;2022-07-29T12:15:32;1.85;;;1.23;;
44838;SDS011;30576;42.098;24.876;2022-07-29T12:17:58;2.08;;;1.55;;
44838;SDS011;30576;42.098;24.876;2022-07-29T12:20:27;2.45;;;1.63;;
44838;SDS011;30576;42.098;24.876;2022-07-29T12:22:55;3.65;;;2.03;;
44838;SDS011;30576;42.098;24.876;2022-07-29T12:25:24;2.15;;;1.30;;
44838;SDS011;30576;42.098;24.876;2022-07-29T12:27:59;2.03;;;1.55;;
44838;SDS011;30576;42.098;24.876;2022-07-29T12:30:40;2.28;;;1.60;;
44838;SDS011;30576;42.098;24.876;2022-07-29T12:33:19;2.55;;;1.55;;
44838;SDS011;30576;42.098;24.876;2022-07-29T12:36:01;3.50;;;1.90;;
44838;SDS011;30576;42.098;24.876;2022-07-29T12:38:28;3.72;;;2.08;;
44838;SDS011;30576;42.098;24.876;2022-07-29T12:40:54;2.03;;;1.38;;
44838;SDS011;30576;42.098;24.876;2022-07-29T12:43:21;2.70;;;1.77;;
44838;SDS011;30576;42.098;24.876;2022-07-29T12:45:48;2.78;;;1.88;;
44838;SDS011;30576;42.098;24.876;2022-07-29T12:48:16;2.25;;;1.38;;
44838;SDS011;30576;42.098;24.876;2022-07-29T12:53:39;2.38;;;1.35;;
44838;SDS011;30576;42.098;24.876;2022-07-29T12:56:04;2.05;;;1.23;;
44838;SDS011;30576;42.098;24.876;2022-07-29T12:58:35;2.40;;;1.38;;
44838;SDS011;30576;42.098;24.876;2022-07-29T13:01:11;2.73;;;1.67;;
44838;SDS011;30576;42.098;24.876;2022-07-29T13:03:43;1.35;;;1.20;;
44838;SDS011;30576;42.098;24.876;2022-07-29T13:08:58;1.73;;;1.48;;
44838;SDS011;30576;42.098;24.876;2022-07-29T13:11:46;3.22;;;1.80;;
44838;SDS011;30576;42.098;24.876;2022-07-29T13:14:31;2.67;;;1.75;;
44838;SDS011;30576;42.098;24.876;2022-07-29T13:22:03;5.63;;;1.90;;
44838;SDS011;30576;42.098;24.876;2022-07-29T13:24:29;4.43;;;2.05;;
44838;SDS011;30576;42.098;24.876;2022-07-29T13:26:55;2.78;;;1.40;;
44838;SDS011;30576;42.098;24.876;2022-07-29T13:29:21;2.53;;;1.23;;
44838;SDS011;30576;42.098;24.876;2022-07-29T13:31:46;1.35;;;1.20;;
44838;SDS011;30576;42.098;24.876;2022-07-29T13:34:12;1.95;;;1.30;;
44838;SDS011;30576;42.098;24.876;2022-07-29T13:36:37;2.92;;;1.95;;
44838;SDS011;30576;42.098;24.876;2022-07-29T13:39:03;2.47;;;1.33;;
44838;SDS011;30576;42.098;24.876;2022-07-29T13:41:28;3.15;;;1.70;;
44838;SDS011;30576;42.098;24.876;2022-07-29T13:43:54;3.17;;;1.52;;
44838;SDS011;30576;42.098;24.876;2022-07-29T13:46:20;5.43;;;1.67;;
44838;SDS011;30576;42.098;24.876;2022-07-29T13:48:46;2.55;;;1.33;;
44838;SDS011;30576;42.098;24.876;2022-07-29T13:51:11;1.83;;;1.40;;
44838;SDS011;30576;42.098;24.876;2022-07-29T13:53:37;2.28;;;1.52;;
44838;SDS011;30576;42.098;24.876;2022-07-29T13:56:03;1.92;;;1.15;;
44838;SDS011;30576;42.098;24.876;2022-07-29T13:58:31;2.33;;;1.50;;
44838;SDS011;30576;42.098;24.876;2022-07-29T14:00:57;2.28;;;1.58;;
44838;SDS011;30576;42.098;24.876;2022-07-29T14:03:23;1.63;;;1.20;;
44838;SDS011;30576;42.098;24.876;2022-07-29T14:05:49;2.17;;;1.30;;
44838;SDS011;30576;42.098;24.876;2022-07-29T14:08:15;2.10;;;1.20;;
44838;SDS011;30576;42.098;24.876;2022-07-29T14:10:40;3.30;;;1.13;;
44838;SDS011;30576;42.098;24.876;2022-07-29T14:13:06;2.63;;;1.45;;
44838;SDS011;30576;42.098;24.876;2022-07-29T14:15:31;1.90;;;1.10;;
44838;SDS011;30576;42.098;24.876;2022-07-29T14:17:57;3.03;;;1.77;;
44838;SDS011;30576;42.098;24.876;2022-07-29T14:20:22;1.85;;;1.25;;
44838;SDS011;30576;42.098;24.876;2022-07-29T14:22:48;2.03;;;1.75;;
44838;SDS011;30576;42.098;24.876;2022-07-29T14:25:13;4.03;;;1.63;;
44838;SDS011;30576;42.098;24.876;2022-07-29T14:27:39;1.63;;;1.20;;
44838;SDS011;30576;42.098;24.876;2022-07-29T14:30:05;2.30;;;1.20;;
44838;SDS011;30576;42.098;24.876;2022-07-29T14:32:31;1.48;;;1.38;;
44838;SDS011;30576;42.098;24.876;2022-07-29T14:34:57;3.28;;;1.17;;
44838;SDS011;30576;42.098;24.876;2022-07-29T14:37:22;1.85;;;1.05;;
44838;SDS011;30576;42.098;24.876;2022-07-29T14:39:47;5.00;;;1.98;;
44838;SDS011;30576;42.098;24.876;2022-07-29T14:42:13;1.85;;;1.40;;
44838;SDS011;30576;42.098;24.876;2022-07-29T14:44:39;1.63;;;1.17;;
44838;SDS011;30576;42.098;24.876;2022-07-29T14:47:06;1.75;;;1.23;;
44838;SDS011;30576;42.098;24.876;2022-07-29T14:49:31;2.00;;;1.27;;
44838;SDS011;30576;42.098;24.876;2022-07-29T14:51:57;2.70;;;1.45;;
44838;SDS011;30576;42.098;24.876;2022-07-29T14:54:22;3.00;;;1.40;;
44838;SDS011;30576;42.098;24.876;2022-07-29T14:56:48;2.22;;;1.67;;
44838;SDS011;30576;42.098;24.876;2022-07-29T14:59:16;2.90;;;1.35;;
44838;SDS011;30576;42.098;24.876;2022-07-29T15:01:42;1.58;;;1.10;;
44838;SDS011;30576;42.098;24.876;2022-07-29T15:04:08;3.13;;;1.55;;
44838;SDS011;30576;42.098;24.876;2022-07-29T15:06:33;2.30;;;1.48;;
44838;SDS011;30576;42.098;24.876;2022-07-29T15:08:59;6.20;;;1.67;;
44838;SDS011;30576;42.098;24.876;2022-07-29T15:11:24;2.17;;;1.40;;
44838;SDS011;30576;42.098;24.876;2022-07-29T15:13:50;2.80;;;1.83;;
44838;SDS011;30576;42.098;24.876;2022-07-29T15:16:16;1.98;;;1.52;;
44838;SDS011;30576;42.098;24.876;2022-07-29T15:18:41;1.33;;;0.93;;
44838;SDS011;30576;42.098;24.876;2022-07-29T15:21:07;2.60;;;1.90;;
44838;SDS011;30576;42.098;24.876;2022-07-29T15:23:32;2.20;;;1.35;;